Startpagina
METAR-TAF:

METAR-TAF

Vliegvelden :

Air Force Base Waterkloof

Waterkloof, Zuid-Afrika

breedte: 25-50S, lengte: 028-13E, hoogte: 1498 m

Actueel weer

Dit bericht is 24 minuten geleden gemaakt, om 22:00 UTC
Wind 3 kt uit het zuiden
Temperatuur 8°C
Vochtigheid 23%
Druk 1023 hPa

METAR: FAWK 242200Z AUTO 17003KT //// // ////// 08/M12 Q1023

Tijdstip: 00:24 (22:24 UTC)

Verwachting

Dit bericht is 13 uur en het 24 minuten geleden gemaakt, om 09:00 UTC
Verwachting geldig van 24 om 10 UTC tot 24 om 18 UTC
Wind 3 kt uit variabele richting
Zicht 10 km of meer
geen wolken onder 1500 m en geen cumulonimbus
Wijzigt naar
van 24 om 10 UTC tot 24 om 12 UTC
Wind 10 kt uit het westen
Wijzigt naar
van 24 om 11 UTC tot 24 om 13 UTC
Wind 3 kt uit variabele richting

TAF: FAWK 240900Z 2410/2418 VRB03KT CAVOK TX24/2413Z TN14/2418Z BECMG 2410/2412 27010KT BECMG 2411/2413 VRB03KT

Waarnemingen en weersverwachtingen van meer dan 4000 vliegvelden (METAR en TAF).

De beschikbare stations zijn de gele en rode punten op de kaart.

Ga met uw muis naar het station om de naam te zien.

Klik dan om waarnemingen en weersverwachtingen te zien.

kaart wijzigen: klik op de groene knoppen met een zwart kruis om in te zoomen, op de groene knop met een streepje om uit te zoomen of op de groene pijlen voor aangrenzende kaarten.


METAR-TAF: